Time;durP1;ratioP1;P1;durP2;ratioP2;P2;SDS_P1;SDS_P2;PMS_P1;PMS_P2;Temp;Humidity;BMP_temperature;BMP_pressure;BME280_temperature;BME280_humidity;BME280_pressure;Samples;Min_cycle;Max_cycle;Signal;HPM_P1;HPM_P2
2023/01/12 00:01:25;;;;;;;9.90;2.63;;;6.20;99.90;;;;;;5011751;28;20267;-82
2023/01/12 00:03:53;;;;;;;6.23;2.50;;;6.20;99.90;;;;;;5012635;28;20827;-82
2023/01/12 00:06:20;;;;;;;10.83;3.23;;;6.20;99.90;;;;;;5011133;28;20258;-81
2023/01/12 00:08:47;;;;;;;11.07;3.23;;;6.20;99.90;;;;;;5009485;28;20224;-81
2023/01/12 00:11:15;;;;;;;10.87;2.53;;;6.20;99.90;;;;;;5002991;28;20304;-81
2023/01/12 00:13:42;;;;;;;10.43;2.67;;;6.20;99.90;;;;;;5003225;28;20351;-81
2023/01/12 00:19:00;;;;;;;10.33;2.83;;;6.30;99.90;;;;;;5009767;28;20251;-81
2023/01/12 00:21:27;;;;;;;7.60;2.27;;;6.30;99.90;;;;;;5007867;28;20740;-82
2023/01/12 00:23:54;;;;;;;8.87;2.67;;;6.20;99.90;;;;;;5009240;28;20888;-81
2023/01/12 00:26:21;;;;;;;7.83;2.50;;;6.30;99.90;;;;;;5009302;28;20264;-82
2023/01/12 00:28:47;;;;;;;5.90;2.23;;;6.40;99.90;;;;;;5012270;28;20256;-82
2023/01/12 00:31:15;;;;;;;7.90;2.57;;;6.30;99.90;;;;;;5012030;28;20245;-82
2023/01/12 00:33:42;;;;;;;8.07;2.60;;;6.40;99.90;;;;;;5011767;28;20223;-82
2023/01/12 00:36:14;;;;;;;7.07;2.93;;;6.40;99.90;;;;;;5005563;28;20513;-81
2023/01/12 00:38:41;;;;;;;8.73;2.83;;;6.40;99.90;;;;;;4994385;28;20309;-82
2023/01/12 00:41:09;;;;;;;8.73;2.37;;;6.50;99.90;;;;;;5001374;28;20228;-81
2023/01/12 00:46:29;;;;;;;9.43;2.97;;;6.40;99.90;;;;;;5007082;28;20936;-81
2023/01/12 00:48:56;;;;;;;8.13;2.50;;;6.50;99.90;;;;;;4989373;28;20274;-81
2023/01/12 00:51:23;;;;;;;9.57;2.70;;;6.50;99.90;;;;;;4987482;28;20229;-81
2023/01/12 00:53:49;;;;;;;5.83;2.40;;;6.50;99.90;;;;;;4988991;28;20245;-81
2023/01/12 00:56:17;;;;;;;10.23;2.50;;;6.50;99.90;;;;;;4995937;28;20228;-81
2023/01/12 00:58:43;;;;;;;9.90;3.07;;;6.50;99.90;;;;;;4991804;28;20239;-81
2023/01/12 01:01:10;;;;;;;8.60;2.57;;;6.50;99.90;;;;;;5008303;28;20952;-81
2023/01/12 01:03:38;;;;;;;9.27;2.50;;;6.50;99.90;;;;;;4991368;28;20308;-81
2023/01/12 01:06:07;;;;;;;8.77;2.57;;;6.50;99.90;;;;;;5018202;28;20284;-82
2023/01/12 01:08:37;;;;;;;10.90;2.80;;;6.60;99.90;;;;;;5000847;28;20232;-81
2023/01/12 01:11:05;;;;;;;10.13;2.80;;;6.60;99.90;;;;;;5003009;28;20236;-81
2023/01/12 01:13:32;;;;;;;12.00;2.67;;;6.60;99.90;;;;;;4990210;28;20478;-81
2023/01/12 01:16:02;;;;;;;6.87;2.47;;;6.60;99.90;;;;;;5008427;28;20250;-81
2023/01/12 01:18:30;;;;;;;9.87;2.47;;;6.60;99.90;;;;;;5008663;28;20296;-81
2023/01/12 01:20:58;;;;;;;12.70;2.60;;;6.60;99.90;;;;;;4996384;28;20227;-80
2023/01/12 01:23:27;;;;;;;9.47;2.67;;;6.60;99.90;;;;;;5002565;28;20316;-81
2023/01/12 01:25:54;;;;;;;8.37;2.23;;;6.60;99.90;;;;;;4997229;28;20530;-81
2023/01/12 01:28:22;;;;;;;7.07;2.70;;;6.60;99.90;;;;;;5003292;28;20307;-81
2023/01/12 01:30:48;;;;;;;9.37;2.60;;;6.60;99.90;;;;;;5008942;28;20234;-81
2023/01/12 01:33:15;;;;;;;10.47;2.40;;;6.60;99.90;;;;;;5000824;28;20219;-81
2023/01/12 01:35:42;;;;;;;8.23;2.53;;;6.60;99.90;;;;;;4988659;28;21039;-81
2023/01/12 01:38:10;;;;;;;7.10;2.10;;;6.60;99.90;;;;;;4987964;28;20229;-81
2023/01/12 01:40:44;;;;;;;8.63;2.30;;;6.60;99.90;;;;;;5005122;28;20233;-82
2023/01/12 01:43:13;;;;;;;9.83;2.43;;;6.60;99.90;;;;;;5013989;28;20234;-82
2023/01/12 01:45:41;;;;;;;7.40;2.13;;;6.60;99.90;;;;;;4988447;28;20232;-82
2023/01/12 01:48:12;;;;;;;7.20;2.00;;;6.60;99.90;;;;;;4984459;28;20220;-82
2023/01/12 01:50:42;;;;;;;5.87;2.10;;;6.60;99.90;;;;;;4986126;28;20229;-82
2023/01/12 01:53:14;;;;;;;6.23;1.97;;;6.60;99.90;;;;;;4998856;28;20227;-82
2023/01/12 01:55:48;;;;;;;3.93;1.90;;;6.60;99.90;;;;;;4999643;28;20233;-81
2023/01/12 01:58:18;;;;;;;6.63;2.40;;;6.70;99.90;;;;;;5010663;28;20225;-83
2023/01/12 02:00:46;;;;;;;7.50;2.20;;;6.70;99.90;;;;;;5005759;28;20228;-82
2023/01/12 02:03:13;;;;;;;7.07;1.83;;;6.70;99.90;;;;;;4995608;28;20301;-82
2023/01/12 02:05:43;;;;;;;10.23;2.17;;;6.80;99.90;;;;;;4987472;28;20251;-81
2023/01/12 02:08:19;;;;;;;7.07;2.27;;;6.80;99.90;;;;;;4988747;28;20390;-82
2023/01/12 02:10:48;;;;;;;7.47;2.17;;;6.80;99.90;;;;;;4979621;28;20278;-82
2023/01/12 02:16:20;;;;;;;5.83;2.27;;;6.90;99.90;;;;;;4997148;28;20225;-82
2023/01/12 02:18:54;;;;;;;5.30;1.70;;;6.90;99.90;;;;;;4982914;28;20235;-81
2023/01/12 02:21:41;;;;;;;8.40;1.87;;;6.90;99.90;;;;;;4982327;28;20334;-81
2023/01/12 02:24:54;;;;;;;9.97;2.60;;;7.00;99.90;;;;;;5000633;28;20230;-82
2023/01/12 02:27:37;;;;;;;9.97;2.57;;;7.00;99.90;;;;;;4998560;28;20228;-82
2023/01/12 02:30:46;;;;;;;7.83;2.27;;;7.00;99.90;;;;;;4986797;28;20249;-82
2023/01/12 02:33:28;;;;;;;7.17;2.20;;;7.10;99.90;;;;;;5004293;28;20228;-81
2023/01/12 02:36:00;;;;;;;6.03;2.10;;;7.10;99.90;;;;;;4997787;28;20232;-82
2023/01/12 02:38:34;;;;;;;7.63;1.93;;;7.10;99.90;;;;;;4995557;28;20341;-82
2023/01/12 02:41:12;;;;;;;7.57;2.40;;;7.20;99.90;;;;;;4989055;28;20220;-81
2023/01/12 02:43:39;;;;;;;7.50;2.10;;;7.20;99.90;;;;;;4999326;28;21057;-81
2023/01/12 02:46:12;;;;;;;7.37;2.13;;;7.20;99.90;;;;;;4986034;28;20260;-81
2023/01/12 02:48:46;;;;;;;5.50;2.20;;;7.20;99.90;;;;;;4996275;28;20644;-81
2023/01/12 02:51:19;;;;;;;7.90;2.57;;;7.20;99.90;;;;;;4994705;28;20210;-81
2023/01/12 02:53:49;;;;;;;7.83;2.20;;;7.30;99.90;;;;;;4983805;28;20226;-80
2023/01/12 02:56:21;;;;;;;6.33;2.40;;;7.30;99.90;;;;;;4996819;28;20236;-81
2023/01/12 02:58:53;;;;;;;5.97;2.00;;;7.30;99.90;;;;;;4997661;28;20236;-80
2023/01/12 03:01:22;;;;;;;8.63;2.40;;;7.30;99.90;;;;;;4983962;28;20225;-81
2023/01/12 03:03:51;;;;;;;5.47;2.10;;;7.30;99.90;;;;;;4994240;28;20236;-82
2023/01/12 03:06:18;;;;;;;5.47;1.90;;;7.30;99.90;;;;;;4989100;28;20256;-82
2023/01/12 03:08:48;;;;;;;5.13;1.80;;;7.30;99.90;;;;;;4992421;28;20297;-82
2023/01/12 03:11:16;;;;;;;7.93;2.20;;;7.40;99.90;;;;;;4999266;28;20226;-82
2023/01/12 03:13:47;;;;;;;8.73;2.40;;;7.40;99.90;;;;;;5003017;28;20238;-81
2023/01/12 03:16:18;;;;;;;6.67;2.00;;;7.40;99.90;;;;;;5003242;28;20222;-82
2023/01/12 03:18:52;;;;;;;5.10;1.80;;;7.40;99.90;;;;;;4997220;28;20234;-82
2023/01/12 03:21:26;;;;;;;6.37;1.73;;;7.40;99.90;;;;;;4993236;28;20213;-82
2023/01/12 03:24:00;;;;;;;5.73;1.77;;;7.30;99.90;;;;;;5004522;28;20299;-81
2023/01/12 03:26:29;;;;;;;6.27;2.33;;;7.30;99.90;;;;;;4990241;28;20233;-81
2023/01/12 03:29:03;;;;;;;5.53;1.80;;;7.30;99.90;;;;;;4990102;28;20244;-81
2023/01/12 03:31:31;;;;;;;8.07;2.00;;;7.30;99.90;;;;;;5003330;28;20230;-82
2023/01/12 03:34:01;;;;;;;7.53;1.97;;;7.30;99.90;;;;;;5000021;28;20708;-81
2023/01/12 03:36:38;;;;;;;4.33;1.43;;;7.20;99.90;;;;;;4980984;28;20923;-81
2023/01/12 03:39:13;;;;;;;4.57;1.97;;;7.20;99.90;;;;;;4997210;28;20221;-81
2023/01/12 03:41:48;;;;;;;5.07;2.00;;;7.20;99.90;;;;;;5003891;28;20241;-81
2023/01/12 03:44:20;;;;;;;4.17;1.30;;;7.20;99.90;;;;;;4985505;28;20596;-81
2023/01/12 03:46:54;;;;;;;6.17;1.67;;;7.10;99.90;;;;;;4984317;28;20263;-81
2023/01/12 03:49:28;;;;;;;6.70;1.90;;;7.10;99.90;;;;;;4997341;28;20311;-81
2023/01/12 03:51:57;;;;;;;7.57;1.90;;;7.10;99.90;;;;;;4976006;28;20225;-81
2023/01/12 03:54:26;;;;;;;3.93;1.37;;;7.10;99.90;;;;;;4999748;28;20241;-81
2023/01/12 03:56:54;;;;;;;4.30;1.60;;;7.10;99.90;;;;;;4995979;28;20229;-81
2023/01/12 03:59:21;;;;;;;7.50;1.87;;;7.10;99.90;;;;;;4987122;28;20228;-81
2023/01/12 04:01:49;;;;;;;5.53;1.80;;;7.20;99.90;;;;;;4996421;28;20831;-81
2023/01/12 04:04:15;;;;;;;3.73;1.77;;;7.10;99.90;;;;;;5003696;28;20221;-81
2023/01/12 04:06:43;;;;;;;5.30;1.93;;;7.10;99.90;;;;;;4982532;28;20268;-81
2023/01/12 04:09:10;;;;;;;5.20;2.00;;;7.10;99.90;;;;;;4990396;28;20710;-82
2023/01/12 04:14:21;;;;;;;6.90;1.60;;;7.10;99.90;;;;;;4984869;28;20591;-82
2023/01/12 04:16:48;;;;;;;5.57;1.87;;;7.20;99.90;;;;;;4989563;28;20226;-82
2023/01/12 04:19:15;;;;;;;6.33;1.67;;;7.20;99.90;;;;;;4984320;28;20226;-82
2023/01/12 04:24:27;;;;;;;7.30;1.70;;;7.20;99.90;;;;;;4988246;28;20240;-83
2023/01/12 04:26:54;;;;;;;5.17;1.97;;;7.20;99.90;;;;;;4991406;28;20703;-82
2023/01/12 04:29:20;;;;;;;5.07;1.80;;;7.20;99.90;;;;;;4992351;28;20227;-82
2023/01/12 04:31:47;;;;;;;7.43;2.33;;;7.20;99.90;;;;;;5004007;28;20227;-82
2023/01/12 04:34:14;;;;;;;5.43;2.33;;;7.20;99.90;;;;;;5006182;28;20289;-82
2023/01/12 04:36:41;;;;;;;6.40;2.10;;;7.20;99.90;;;;;;4989763;28;20315;-81
2023/01/12 04:39:08;;;;;;;8.77;2.33;;;7.20;99.90;;;;;;5005432;28;20310;-81
2023/01/12 04:41:36;;;;;;;4.90;2.03;;;7.20;99.90;;;;;;4994194;28;20333;-82
2023/01/12 04:44:03;;;;;;;6.03;2.07;;;7.20;99.90;;;;;;4986123;28;20261;-82
2023/01/12 04:46:33;;;;;;;6.77;1.70;;;7.20;99.90;;;;;;5006363;28;20759;-81
2023/01/12 04:49:00;;;;;;;6.30;2.00;;;7.20;99.90;;;;;;4985562;28;20224;-82
2023/01/12 04:51:27;;;;;;;5.30;2.00;;;7.20;99.90;;;;;;4986845;28;20787;-81
2023/01/12 04:53:54;;;;;;;9.57;2.07;;;7.10;99.90;;;;;;4995260;28;20795;-81
2023/01/12 04:56:20;;;;;;;5.73;1.90;;;7.10;99.90;;;;;;4982786;28;20223;-82
2023/01/12 04:58:58;;;;;;;;;;;;;;;;;;;;;
2023/01/12 05:01:27;;;;;;;5.77;1.70;;;7.20;99.90;;;;;;4999464;28;20243;-82
2023/01/12 05:03:55;;;;;;;4.40;1.70;;;7.20;99.90;;;;;;5001779;28;20220;-81
2023/01/12 05:06:22;;;;;;;6.93;1.83;;;7.20;99.90;;;;;;5005557;28;20324;-81
2023/01/12 05:11:33;;;;;;;5.57;1.60;;;7.20;99.90;;;;;;4989470;28;20235;-82
2023/01/12 05:14:04;;;;;;;6.40;1.70;;;7.10;99.90;;;;;;5001530;28;20905;-80
2023/01/12 05:16:31;;;;;;;6.77;1.90;;;7.20;99.90;;;;;;5004853;28;20238;-80
2023/01/12 05:18:58;;;;;;;5.50;1.60;;;7.20;99.90;;;;;;4984713;28;21026;-80
2023/01/12 05:21:24;;;;;;;3.27;1.43;;;7.20;99.90;;;;;;4988360;28;20558;-82
2023/01/12 05:23:52;;;;;;;4.20;1.60;;;7.20;99.90;;;;;;5003396;28;20288;-80
2023/01/12 05:26:20;;;;;;;5.53;1.73;;;7.20;99.90;;;;;;4987144;28;20235;-80
2023/01/12 05:28:48;;;;;;;3.87;1.73;;;7.20;99.90;;;;;;4990311;28;20280;-79
2023/01/12 05:31:18;;;;;;;6.13;1.50;;;7.20;99.90;;;;;;4999579;28;20225;-79
2023/01/12 05:33:45;;;;;;;6.57;1.87;;;7.20;99.90;;;;;;4988268;28;20224;-81
2023/01/12 05:36:13;;;;;;;4.80;1.80;;;7.20;99.90;;;;;;5000611;28;20230;-80
2023/01/12 05:38:41;;;;;;;8.17;1.90;;;7.20;99.90;;;;;;5000080;28;20224;-80
2023/01/12 05:41:09;;;;;;;11.00;1.80;;;7.10;99.90;;;;;;4994154;28;20226;-79
2023/01/12 05:43:50;;;;;;;5.70;1.80;;;7.00;99.90;;;;;;4987289;28;20245;-82
2023/01/12 05:46:20;;;;;;;10.20;2.00;;;7.00;99.90;;;;;;4997587;28;20260;-81
2023/01/12 05:48:47;;;;;;;7.47;1.87;;;7.00;99.90;;;;;;4986067;28;20602;-81
2023/01/12 05:51:15;;;;;;;3.90;2.03;;;7.00;99.90;;;;;;4997164;28;20237;-81
2023/01/12 05:53:42;;;;;;;6.53;1.90;;;7.00;99.90;;;;;;4998490;28;20304;-81
2023/01/12 05:56:11;;;;;;;11.13;2.57;;;6.90;99.90;;;;;;4983812;28;20243;-81
2023/01/12 05:58:38;;;;;;;9.13;2.00;;;6.80;99.90;;;;;;4994809;28;20227;-81
2023/01/12 06:01:09;;;;;;;8.40;2.20;;;6.80;99.90;;;;;;4988091;28;20311;-81
2023/01/12 06:03:38;;;;;;;8.60;2.30;;;6.70;99.90;;;;;;4996963;28;21008;-82
2023/01/12 06:06:05;;;;;;;3.87;1.67;;;6.70;99.90;;;;;;5001984;28;20236;-82
2023/01/12 06:08:32;;;;;;;6.00;2.27;;;6.70;99.90;;;;;;4981921;28;20234;-83
2023/01/12 06:11:02;;;;;;;3.23;1.87;;;6.70;99.90;;;;;;5000997;28;20270;-81
2023/01/12 06:16:14;;;;;;;4.17;1.90;;;6.60;99.90;;;;;;4994831;28;20221;-82
2023/01/12 06:18:42;;;;;;;4.07;1.83;;;6.60;99.90;;;;;;4980558;28;20225;-80
2023/01/12 06:21:09;;;;;;;7.07;2.70;;;6.60;99.90;;;;;;4981979;28;20228;-80
2023/01/12 06:23:36;;;;;;;5.57;1.93;;;6.60;99.90;;;;;;4980505;28;20656;-80
2023/01/12 06:26:05;;;;;;;6.37;2.97;;;6.60;99.90;;;;;;5001294;28;20229;-80
2023/01/12 06:28:31;;;;;;;6.03;2.40;;;6.60;99.90;;;;;;5000432;28;20226;-80
2023/01/12 06:31:00;;;;;;;6.50;2.80;;;6.50;99.90;;;;;;4988434;28;20747;-80
2023/01/12 06:33:27;;;;;;;5.53;2.50;;;6.50;99.90;;;;;;4988683;28;20862;-80
2023/01/12 06:35:56;;;;;;;6.00;2.40;;;6.60;99.90;;;;;;4999397;28;20254;-80
2023/01/12 06:38:25;;;;;;;5.03;2.43;;;6.50;99.90;;;;;;4996242;28;20768;-80
2023/01/12 06:40:52;;;;;;;7.83;3.07;;;6.50;99.90;;;;;;4979818;28;20321;-80
2023/01/12 06:43:20;;;;;;;6.67;2.93;;;6.50;99.90;;;;;;4993078;28;20228;-80
2023/01/12 06:45:47;;;;;;;8.10;5.27;;;6.50;99.90;;;;;;4998186;28;20255;-81
2023/01/12 06:48:14;;;;;;;5.70;2.80;;;6.50;99.90;;;;;;4997531;28;20310;-80
2023/01/12 06:50:41;;;;;;;8.87;3.30;;;6.60;99.90;;;;;;4982494;28;20686;-81
2023/01/12 06:53:09;;;;;;;9.87;6.27;;;6.60;99.90;;;;;;4983327;28;20246;-80
2023/01/12 06:55:36;;;;;;;6.63;3.47;;;6.60;99.90;;;;;;4981525;28;20634;-79
2023/01/12 06:58:04;;;;;;;7.80;3.43;;;6.60;99.90;;;;;;4999677;28;20222;-81
2023/01/12 07:00:31;;;;;;;5.53;2.80;;;6.60;99.90;;;;;;4994000;28;20232;-80
2023/01/12 07:02:58;;;;;;;6.60;3.43;;;6.60;99.90;;;;;;4982353;28;20247;-80
2023/01/12 07:05:25;;;;;;;5.70;3.40;;;6.60;99.90;;;;;;4971267;28;20404;-80
2023/01/12 07:07:59;;;;;;;5.60;2.90;;;6.60;99.90;;;;;;4985263;28;20242;-80
2023/01/12 07:10:27;;;;;;;5.03;2.80;;;6.60;99.90;;;;;;4997597;28;20221;-79
2023/01/12 07:12:56;;;;;;;5.70;2.83;;;6.60;99.90;;;;;;4988727;28;20226;-80
2023/01/12 07:15:22;;;;;;;5.10;3.20;;;6.60;99.90;;;;;;4986034;28;20247;-80
2023/01/12 07:17:55;;;;;;;6.80;3.10;;;6.60;99.90;;;;;;4999218;28;20471;-80
2023/01/12 07:20:22;;;;;;;4.87;2.97;;;6.60;99.90;;;;;;4987140;28;20828;-80
2023/01/12 07:22:50;;;;;;;4.30;3.03;;;6.60;99.90;;;;;;4989835;28;20698;-80
2023/01/12 07:25:20;;;;;;;3.93;3.00;;;6.60;99.90;;;;;;5005048;28;20337;-79
2023/01/12 07:27:54;;;;;;;4.40;2.80;;;6.60;99.90;;;;;;4993582;28;20241;-79
2023/01/12 07:30:22;;;;;;;5.93;2.77;;;6.60;99.90;;;;;;5005526;28;20224;-80
2023/01/12 07:32:49;;;;;;;4.63;2.93;;;6.60;99.90;;;;;;5008314;28;20235;-80
2023/01/12 07:35:17;;;;;;;4.80;2.97;;;6.70;99.90;;;;;;5007532;28;20755;-79
2023/01/12 07:37:47;;;;;;;5.37;3.10;;;6.60;99.90;;;;;;5001398;28;20297;-80
2023/01/12 07:40:14;;;;;;;5.77;2.90;;;6.60;99.90;;;;;;5006764;28;20268;-79
2023/01/12 07:42:40;;;;;;;4.03;2.50;;;6.60;99.90;;;;;;4988465;28;20227;-79
2023/01/12 07:45:09;;;;;;;3.87;2.70;;;6.70;99.90;;;;;;5003663;28;20263;-79
2023/01/12 07:47:36;;;;;;;3.90;2.60;;;6.70;99.90;;;;;;5004384;28;20233;-79
2023/01/12 07:50:03;;;;;;;5.40;2.80;;;6.70;99.90;;;;;;4991559;28;20800;-80
2023/01/12 07:52:30;;;;;;;4.20;2.60;;;6.80;99.90;;;;;;5007677;28;20241;-79
2023/01/12 07:54:58;;;;;;;4.40;2.10;;;6.80;99.90;;;;;;4992105;28;20228;-79
2023/01/12 07:57:25;;;;;;;5.20;2.10;;;6.80;99.90;;;;;;4987344;28;20328;-79
2023/01/12 07:59:51;;;;;;;4.00;1.90;;;6.70;99.90;;;;;;5008180;28;20742;-79
2023/01/12 08:02:19;;;;;;;3.70;2.30;;;6.80;99.90;;;;;;5011411;28;20228;-79
2023/01/12 08:04:47;;;;;;;4.63;2.10;;;6.80;99.90;;;;;;5006863;28;20333;-79
2023/01/12 08:07:14;;;;;;;5.20;2.20;;;6.90;99.90;;;;;;5006687;28;20236;-79
2023/01/12 08:09:41;;;;;;;3.50;1.80;;;6.90;99.90;;;;;;5007765;28;20230;-79
2023/01/12 08:12:08;;;;;;;4.80;1.77;;;6.90;99.90;;;;;;4995942;28;20225;-79
2023/01/12 08:14:36;;;;;;;2.83;1.33;;;6.90;99.90;;;;;;5011801;28;20225;-79
2023/01/12 08:17:06;;;;;;;2.13;1.40;;;6.80;99.90;;;;;;5011534;28;21722;-79
2023/01/12 08:19:41;;;;;;;2.77;1.17;;;6.80;99.90;;;;;;4993064;28;20737;-79
2023/01/12 08:22:15;;;;;;;5.83;1.40;;;6.80;99.90;;;;;;5007257;28;20790;-79
2023/01/12 08:24:46;;;;;;;6.33;1.53;;;6.80;99.90;;;;;;5007936;28;20228;-78
2023/01/12 08:27:12;;;;;;;2.60;1.33;;;6.90;99.90;;;;;;5008609;28;20320;-79
2023/01/12 08:30:03;;;;;;;3.30;0.97;;;6.90;99.90;;;;;;5008874;28;20236;-79
2023/01/12 08:32:36;;;;;;;2.80;1.10;;;6.80;99.90;;;;;;4994470;28;20648;-79
2023/01/12 08:35:06;;;;;;;3.43;1.20;;;6.90;99.90;;;;;;4994143;28;20253;-79
2023/01/12 08:37:34;;;;;;;3.43;0.90;;;6.80;99.90;;;;;;4993382;28;20287;-79
2023/01/12 08:40:02;;;;;;;1.93;1.00;;;6.80;99.90;;;;;;5015380;28;20240;-79
2023/01/12 08:42:29;;;;;;;2.97;1.17;;;6.80;99.90;;;;;;5014891;28;20296;-80
2023/01/12 08:44:56;;;;;;;2.90;0.90;;;6.70;99.90;;;;;;5010744;28;20808;-78
2023/01/12 08:47:26;;;;;;;2.97;0.80;;;6.70;99.90;;;;;;5009788;28;20227;-79
2023/01/12 08:49:53;;;;;;;2.53;1.00;;;6.70;99.90;;;;;;5012645;28;20225;-78
2023/01/12 08:52:24;;;;;;;3.17;1.00;;;6.60;99.90;;;;;;5007237;28;20216;-79
2023/01/12 08:54:51;;;;;;;1.53;0.97;;;6.60;99.90;;;;;;5007744;28;20486;-79
2023/01/12 08:57:18;;;;;;;2.13;0.83;;;6.60;99.90;;;;;;4993831;28;20263;-78
2023/01/12 08:59:45;;;;;;;1.07;0.90;;;6.70;99.90;;;;;;4994960;28;20900;-78
2023/01/12 09:02:15;;;;;;;2.70;1.10;;;6.70;99.90;;;;;;4991904;28;20226;-78
2023/01/12 09:04:44;;;;;;;2.70;0.80;;;6.70;99.90;;;;;;4984085;28;20310;-79
2023/01/12 09:07:12;;;;;;;3.07;0.70;;;6.80;99.90;;;;;;4998093;28;20239;-79
2023/01/12 09:09:40;;;;;;;2.37;0.73;;;6.70;99.90;;;;;;4996229;28;20228;-79
2023/01/12 09:12:07;;;;;;;1.87;0.70;;;6.70;99.90;;;;;;4995488;28;20264;-79
2023/01/12 09:14:37;;;;;;;2.60;0.80;;;6.70;99.90;;;;;;5001588;28;20228;-78
2023/01/12 09:17:04;;;;;;;2.27;0.77;;;6.80;99.90;;;;;;4990893;28;20225;-78
2023/01/12 09:19:31;;;;;;;0.87;0.50;;;6.80;99.90;;;;;;5003183;28;20234;-79
2023/01/12 09:21:58;;;;;;;1.00;0.40;;;6.70;99.90;;;;;;5010052;28;20230;-79
2023/01/12 09:24:25;;;;;;;0.83;0.43;;;6.80;99.90;;;;;;5004041;28;20313;-79
2023/01/12 09:26:53;;;;;;;2.90;0.50;;;6.70;99.90;;;;;;5007756;28;20227;-79
2023/01/12 09:29:19;;;;;;;1.13;0.43;;;6.80;99.90;;;;;;5012985;28;20233;-79
2023/01/12 09:31:46;;;;;;;1.10;0.67;;;6.80;99.90;;;;;;4990892;28;20262;-80
2023/01/12 09:34:13;;;;;;;1.20;0.70;;;6.80;99.90;;;;;;5003411;28;20213;-79
2023/01/12 09:36:40;;;;;;;0.83;0.70;;;6.80;99.90;;;;;;4988205;28;20283;-79
2023/01/12 09:39:08;;;;;;;3.50;0.97;;;6.80;99.90;;;;;;5008894;28;20221;-79
2023/01/12 09:47:19;;;;;;;1.17;0.70;;;6.90;99.90;;;;;;5007473;28;20234;-79
2023/01/12 09:49:51;;;;;;;2.17;0.87;;;7.00;99.90;;;;;;4992201;28;20739;-79
2023/01/12 09:52:20;;;;;;;0.70;0.70;;;7.00;99.90;;;;;;5007246;28;20249;-79
2023/01/12 09:54:49;;;;;;;0.80;0.50;;;7.00;99.90;;;;;;4991700;28;21953;-79
2023/01/12 09:57:51;;;;;;;1.17;0.57;;;7.10;99.90;;;;;;5007917;28;20805;-78
2023/01/12 10:00:20;;;;;;;2.13;0.70;;;7.10;99.90;;;;;;4991834;28;20229;-79
2023/01/12 10:02:52;;;;;;;2.00;0.60;;;7.20;99.90;;;;;;5011614;28;20234;-79
2023/01/12 10:05:27;;;;;;;0.80;0.60;;;7.20;99.90;;;;;;4995914;28;20237;-79
2023/01/12 10:07:55;;;;;;;1.43;0.87;;;7.20;99.90;;;;;;4995004;28;20228;-79
2023/01/12 10:10:22;;;;;;;1.93;0.90;;;7.10;99.90;;;;;;5013994;28;20229;-80
2023/01/12 10:12:55;;;;;;;0.77;0.50;;;7.20;99.90;;;;;;4994640;28;20305;-79
2023/01/12 10:15:33;;;;;;;1.23;0.73;;;7.20;99.90;;;;;;4983868;28;20244;-79
2023/01/12 10:18:07;;;;;;;0.80;0.40;;;7.30;99.90;;;;;;4988274;28;20456;-79
2023/01/12 10:20:39;;;;;;;1.73;1.00;;;7.40;99.90;;;;;;4999372;28;21422;-79
2023/01/12 10:23:15;;;;;;;1.20;0.73;;;7.40;99.90;;;;;;4991646;28;20226;-79
2023/01/12 10:25:44;;;;;;;2.37;0.90;;;7.40;99.90;;;;;;5010707;28;20463;-80
2023/01/12 10:28:17;;;;;;;1.00;0.83;;;7.50;99.90;;;;;;5004189;28;20245;-79
2023/01/12 10:30:45;;;;;;;1.10;0.90;;;7.50;99.90;;;;;;5005428;28;20272;-79
2023/01/12 10:33:15;;;;;;;0.90;0.60;;;7.60;99.90;;;;;;5003685;28;20271;-79
2023/01/12 10:35:53;;;;;;;0.83;0.47;;;7.60;99.90;;;;;;5012372;28;20238;-80
2023/01/12 10:38:23;;;;;;;0.50;0.50;;;7.60;99.90;;;;;;5009984;28;20512;-79
2023/01/12 10:41:05;;;;;;;1.03;0.70;;;7.60;99.90;;;;;;4993850;28;20247;-80
2023/01/12 10:43:33;;;;;;;0.80;0.57;;;7.60;99.90;;;;;;4995612;28;20233;-79
2023/01/12 10:46:09;;;;;;;2.30;1.00;;;7.70;99.90;;;;;;5009392;28;20280;-78
2023/01/12 10:48:38;;;;;;;1.77;0.60;;;7.70;99.90;;;;;;4993325;28;20310;-79
2023/01/12 10:51:07;;;;;;;1.50;0.70;;;7.70;99.90;;;;;;4982743;28;20318;-78
2023/01/12 10:53:42;;;;;;;0.57;0.47;;;7.80;99.90;;;;;;5007037;28;20254;-78
2023/01/12 10:56:22;;;;;;;0.90;0.40;;;7.80;99.90;;;;;;5006223;28;20241;-78
2023/01/12 10:58:54;;;;;;;1.00;0.50;;;7.80;99.90;;;;;;5008406;28;20216;-79
2023/01/12 11:01:23;;;;;;;0.60;0.50;;;7.80;99.90;;;;;;4989336;28;20279;-78
2023/01/12 11:03:50;;;;;;;1.47;0.50;;;7.90;99.90;;;;;;5003342;28;20336;-79
2023/01/12 11:06:25;;;;;;;1.47;0.70;;;7.90;99.90;;;;;;4998338;28;20885;-80
2023/01/12 11:08:54;;;;;;;0.60;0.50;;;7.90;99.90;;;;;;5000677;28;20856;-80
2023/01/12 11:11:26;;;;;;;1.50;0.70;;;7.90;99.90;;;;;;4999089;28;20221;-80
2023/01/12 11:13:56;;;;;;;2.03;0.70;;;8.00;99.90;;;;;;4987733;28;20269;-80
2023/01/12 11:16:26;;;;;;;1.47;1.27;;;8.00;99.90;;;;;;4997201;28;20226;-80
2023/01/12 11:19:13;;;;;;;1.00;0.73;;;8.10;99.90;;;;;;4999023;28;20317;-80
2023/01/12 11:21:45;;;;;;;1.03;0.63;;;8.10;99.90;;;;;;4995123;28;20221;-81
2023/01/12 11:24:20;;;;;;;1.63;0.90;;;8.10;99.90;;;;;;5000838;28;20779;-80
2023/01/12 11:26:52;;;;;;;0.67;0.43;;;8.10;99.90;;;;;;4989686;28;20300;-81
2023/01/12 11:29:36;;;;;;;0.70;0.57;;;8.20;99.90;;;;;;5003274;28;20230;-80
2023/01/12 11:32:11;;;;;;;0.40;0.40;;;8.20;99.90;;;;;;4981188;28;20318;-80
2023/01/12 11:34:47;;;;;;;1.23;0.60;;;8.20;99.90;;;;;;4978680;28;20342;-80
2023/01/12 11:37:14;;;;;;;1.57;0.80;;;8.30;99.90;;;;;;5005624;28;20303;-80
2023/01/12 11:39:52;;;;;;;1.03;0.60;;;8.30;99.90;;;;;;4987918;28;20243;-80
2023/01/12 11:45:14;;;;;;;1.77;0.70;;;8.40;99.90;;;;;;4999189;28;20226;-80
2023/01/12 11:47:48;;;;;;;0.87;0.60;;;8.40;99.90;;;;;;4979575;28;20232;-80
2023/01/12 11:50:18;;;;;;;1.43;0.80;;;8.50;99.90;;;;;;4979496;28;20219;-81
2023/01/12 11:52:47;;;;;;;1.30;0.77;;;8.50;99.90;;;;;;5005473;28;20256;-81
2023/01/12 11:55:20;;;;;;;1.47;0.70;;;8.50;99.90;;;;;;4985266;28;20292;-81
2023/01/12 11:58:05;;;;;;;1.13;0.83;;;8.50;99.90;;;;;;4998779;28;20243;-80
2023/01/12 12:00:43;;;;;;;2.70;1.00;;;8.60;99.90;;;;;;4977570;28;20510;-80
2023/01/12 12:03:27;;;;;;;2.67;0.70;;;8.60;99.90;;;;;;4981276;28;20226;-80
2023/01/12 12:06:02;;;;;;;1.10;0.80;;;8.60;99.90;;;;;;4999253;28;20226;-80
2023/01/12 12:08:39;;;;;;;2.57;0.97;;;8.60;99.90;;;;;;5000770;28;20256;-80
2023/01/12 12:11:11;;;;;;;2.27;0.80;;;8.70;99.90;;;;;;4999008;28;20225;-80
2023/01/12 12:13:44;;;;;;;3.30;1.20;;;8.70;99.90;;;;;;4985131;28;20296;-80
2023/01/12 12:16:27;;;;;;;1.03;0.77;;;8.70;99.90;;;;;;5001742;28;20238;-80
2023/01/12 12:19:14;;;;;;;1.17;0.60;;;8.70;99.90;;;;;;5000598;28;20669;-80
2023/01/12 12:21:48;;;;;;;1.00;0.60;;;8.70;99.90;;;;;;4984885;28;20251;-80
2023/01/12 12:24:47;;;;;;;1.70;0.60;;;8.80;99.90;;;;;;4982341;28;20310;-81
2023/01/12 12:27:23;;;;;;;1.20;0.70;;;8.80;99.90;;;;;;4989535;28;20233;-80
2023/01/12 12:30:23;;;;;;;1.77;0.97;;;8.80;99.90;;;;;;5006762;28;20241;-80
2023/01/12 12:32:55;;;;;;;1.97;0.70;;;8.90;99.90;;;;;;4999562;28;20231;-81
2023/01/12 12:35:37;;;;;;;1.23;0.70;;;8.90;99.90;;;;;;4994977;28;20222;-80
2023/01/12 12:38:20;;;;;;;0.50;0.50;;;8.90;99.90;;;;;;4997092;28;20227;-80
2023/01/12 12:46:46;;;;;;;2.00;1.00;;;9.00;99.90;;;;;;4988521;28;20231;-80
2023/01/12 12:49:20;;;;;;;1.63;0.90;;;9.00;99.90;;;;;;4984235;28;20227;-81
2023/01/12 12:51:49;;;;;;;1.20;0.83;;;9.00;99.90;;;;;;4992537;28;20233;-80
2023/01/12 12:54:18;;;;;;;1.63;1.13;;;9.10;99.90;;;;;;5002461;28;20582;-80
2023/01/12 12:56:46;;;;;;;3.47;1.10;;;9.10;99.90;;;;;;5003185;28;20255;-80
2023/01/12 12:59:46;;;;;;;1.10;1.00;;;9.10;99.90;;;;;;4989187;28;20238;-80
2023/01/12 13:02:32;;;;;;;2.20;0.90;;;9.10;99.90;;;;;;4998339;28;20611;-80
2023/01/12 13:05:04;;;;;;;2.67;1.60;;;9.10;99.90;;;;;;4981750;28;20228;-81
2023/01/12 13:07:38;;;;;;;1.13;0.77;;;9.20;99.90;;;;;;5000085;28;20282;-80
2023/01/12 13:10:30;;;;;;;1.20;0.80;;;9.20;99.90;;;;;;5002228;28;20733;-81
2023/01/12 13:13:02;;;;;;;1.53;0.70;;;9.20;99.90;;;;;;5007243;28;20235;-82
2023/01/12 13:15:35;;;;;;;2.90;0.80;;;9.20;99.90;;;;;;5003121;28;20236;-81
2023/01/12 13:18:05;;;;;;;1.97;0.90;;;9.20;99.90;;;;;;5002250;28;20230;-80
2023/01/12 13:20:58;;;;;;;2.77;0.87;;;9.30;99.90;;;;;;5004946;28;20692;-80
2023/01/12 13:23:45;;;;;;;2.77;1.00;;;9.30;99.90;;;;;;4985333;28;20235;-80
2023/01/12 13:26:36;;;;;;;2.50;1.27;;;9.30;99.90;;;;;;4998424;28;20240;-80
2023/01/12 13:29:37;;;;;;;2.50;1.07;;;9.40;99.90;;;;;;5001641;28;20219;-80
2023/01/12 13:32:46;;;;;;;5.03;1.13;;;9.40;99.90;;;;;;4998351;28;20216;-80
2023/01/12 13:36:04;;;;;;;4.53;1.20;;;9.40;99.90;;;;;;4997516;28;20224;-80
2023/01/12 13:39:05;;;;;;;8.00;1.40;;;9.50;99.90;;;;;;4983281;28;20221;-79
2023/01/12 13:44:30;;;;;;;3.17;1.23;;;9.60;99.90;;;;;;4987651;28;20227;-84
2023/01/12 13:47:08;;;;;;;3.80;1.27;;;9.60;99.90;;;;;;4991362;28;20225;-80
2023/01/12 13:49:42;;;;;;;6.33;1.23;;;9.60;99.90;;;;;;5000498;28;20208;-81
2023/01/12 13:52:21;;;;;;;3.50;1.00;;;9.60;99.90;;;;;;5003883;28;20223;-80
2023/01/12 13:54:53;;;;;;;3.97;1.40;;;9.70;99.90;;;;;;4999645;28;20628;-83
2023/01/12 13:57:22;;;;;;;4.63;1.30;;;9.70;99.90;;;;;;5008167;28;20232;-83